sensor_id;sensor_type;location;lat;lon;timestamp;temperature;humidity
22426;DHT22;11380;50.822;15.790;2022-07-29T00:03:07;13.10;1.00
22426;DHT22;11380;50.822;15.790;2022-07-29T00:08:12;13.30;1.00
22426;DHT22;11380;50.822;15.790;2022-07-29T00:13:19;12.90;1.00
22426;DHT22;11380;50.822;15.790;2022-07-29T00:18:26;13.00;1.00
22426;DHT22;11380;50.822;15.790;2022-07-29T00:23:34;13.20;1.00
22426;DHT22;11380;50.822;15.790;2022-07-29T00:28:40;13.20;1.00
22426;DHT22;11380;50.822;15.790;2022-07-29T00:33:45;12.80;1.00
22426;DHT22;11380;50.822;15.790;2022-07-29T00:38:51;12.80;1.00
22426;DHT22;11380;50.822;15.790;2022-07-29T00:43:57;12.50;1.00
22426;DHT22;11380;50.822;15.790;2022-07-29T00:49:03;12.50;1.00
22426;DHT22;11380;50.822;15.790;2022-07-29T00:54:09;12.60;1.00
22426;DHT22;11380;50.822;15.790;2022-07-29T00:59:14;12.70;1.00
22426;DHT22;11380;50.822;15.790;2022-07-29T01:04:20;12.70;1.00
22426;DHT22;11380;50.822;15.790;2022-07-29T01:09:27;12.80;1.00
22426;DHT22;11380;50.822;15.790;2022-07-29T01:14:34;12.90;1.00
22426;DHT22;11380;50.822;15.790;2022-07-29T01:30:36;12.30;1.00
22426;DHT22;11380;50.822;15.790;2022-07-29T01:35:43;12.50;1.00
22426;DHT22;11380;50.822;15.790;2022-07-29T01:40:54;12.50;1.00
22426;DHT22;11380;50.822;15.790;2022-07-29T01:46:05;12.80;1.00
22426;DHT22;11380;50.822;15.790;2022-07-29T01:51:18;12.40;1.00
22426;DHT22;11380;50.822;15.790;2022-07-29T01:56:24;12.10;1.00
22426;DHT22;11380;50.822;15.790;2022-07-29T02:01:33;12.30;1.00
22426;DHT22;11380;50.822;15.790;2022-07-29T02:06:41;12.30;1.00
22426;DHT22;11380;50.822;15.790;2022-07-29T02:11:52;12.40;1.00
22426;DHT22;11380;50.822;15.790;2022-07-29T02:17:01;12.20;1.00
22426;DHT22;11380;50.822;15.790;2022-07-29T02:22:07;12.60;1.00
22426;DHT22;11380;50.822;15.790;2022-07-29T02:27:15;12.90;1.00
22426;DHT22;11380;50.822;15.790;2022-07-29T02:32:22;12.70;1.00
22426;DHT22;11380;50.822;15.790;2022-07-29T02:37:30;12.10;1.00
22426;DHT22;11380;50.822;15.790;2022-07-29T02:42:37;12.40;1.00
22426;DHT22;11380;50.822;15.790;2022-07-29T02:47:47;12.70;1.00
22426;DHT22;11380;50.822;15.790;2022-07-29T02:58:27;12.40;1.00
22426;DHT22;11380;50.822;15.790;2022-07-29T03:03:36;12.40;1.00
22426;DHT22;11380;50.822;15.790;2022-07-29T03:08:42;12.60;1.00
22426;DHT22;11380;50.822;15.790;2022-07-29T03:13:48;12.40;1.00
22426;DHT22;11380;50.822;15.790;2022-07-29T03:18:55;12.20;1.00
22426;DHT22;11380;50.822;15.790;2022-07-29T03:24:00;12.10;1.00
22426;DHT22;11380;50.822;15.790;2022-07-29T03:29:06;12.20;1.00
22426;DHT22;11380;50.822;15.790;2022-07-29T03:34:13;12.40;1.00
22426;DHT22;11380;50.822;15.790;2022-07-29T03:39:23;12.60;1.00
22426;DHT22;11380;50.822;15.790;2022-07-29T03:44:29;12.50;1.00
22426;DHT22;11380;50.822;15.790;2022-07-29T03:49:37;12.60;1.00
22426;DHT22;11380;50.822;15.790;2022-07-29T03:54:43;12.60;1.00
22426;DHT22;11380;50.822;15.790;2022-07-29T03:59:48;13.00;1.00
22426;DHT22;11380;50.822;15.790;2022-07-29T04:04:55;13.30;1.00
22426;DHT22;11380;50.822;15.790;2022-07-29T04:10:01;13.30;1.00
22426;DHT22;11380;50.822;15.790;2022-07-29T04:15:07;13.40;1.00
22426;DHT22;11380;50.822;15.790;2022-07-29T04:20:12;13.70;1.00
22426;DHT22;11380;50.822;15.790;2022-07-29T04:25:17;13.70;1.00
22426;DHT22;11380;50.822;15.790;2022-07-29T04:30:23;13.80;1.00
22426;DHT22;11380;50.822;15.790;2022-07-29T04:35:29;13.70;1.00
22426;DHT22;11380;50.822;15.790;2022-07-29T04:40:36;13.70;1.00
22426;DHT22;11380;50.822;15.790;2022-07-29T04:45:41;13.80;1.00
22426;DHT22;11380;50.822;15.790;2022-07-29T04:50:46;13.80;1.00
22426;DHT22;11380;50.822;15.790;2022-07-29T04:55:52;14.00;1.00
22426;DHT22;11380;50.822;15.790;2022-07-29T05:00:57;14.30;1.00
22426;DHT22;11380;50.822;15.790;2022-07-29T05:06:03;14.30;1.00
22426;DHT22;11380;50.822;15.790;2022-07-29T05:11:09;14.60;1.00
22426;DHT22;11380;50.822;15.790;2022-07-29T05:16:16;14.70;1.00
22426;DHT22;11380;50.822;15.790;2022-07-29T05:21:22;14.70;1.00
22426;DHT22;11380;50.822;15.790;2022-07-29T05:26:27;15.00;1.00
22426;DHT22;11380;50.822;15.790;2022-07-29T05:31:32;15.10;1.00
22426;DHT22;11380;50.822;15.790;2022-07-29T05:36:38;15.30;1.00
22426;DHT22;11380;50.822;15.790;2022-07-29T05:41:44;15.40;1.00
22426;DHT22;11380;50.822;15.790;2022-07-29T05:46:51;15.50;1.00
22426;DHT22;11380;50.822;15.790;2022-07-29T05:51:55;15.40;1.00
22426;DHT22;11380;50.822;15.790;2022-07-29T05:57:01;15.50;1.00
22426;DHT22;11380;50.822;15.790;2022-07-29T06:02:06;15.40;1.00
22426;DHT22;11380;50.822;15.790;2022-07-29T06:07:12;15.70;1.00
22426;DHT22;11380;50.822;15.790;2022-07-29T06:12:18;15.90;1.00
22426;DHT22;11380;50.822;15.790;2022-07-29T06:17:24;16.10;1.00
22426;DHT22;11380;50.822;15.790;2022-07-29T06:22:30;16.30;1.00
22426;DHT22;11380;50.822;15.790;2022-07-29T06:27:35;16.70;1.00
22426;DHT22;11380;50.822;15.790;2022-07-29T06:32:42;16.90;1.00
22426;DHT22;11380;50.822;15.790;2022-07-29T06:37:48;17.20;1.00
22426;DHT22;11380;50.822;15.790;2022-07-29T06:42:55;17.40;1.00
22426;DHT22;11380;50.822;15.790;2022-07-29T06:48:00;17.90;1.00
22426;DHT22;11380;50.822;15.790;2022-07-29T06:53:06;18.50;1.00
22426;DHT22;11380;50.822;15.790;2022-07-29T06:58:11;18.80;1.00
22426;DHT22;11380;50.822;15.790;2022-07-29T07:03:19;19.00;1.00
22426;DHT22;11380;50.822;15.790;2022-07-29T07:08:24;19.10;1.00
22426;DHT22;11380;50.822;15.790;2022-07-29T07:13:30;19.80;1.00
22426;DHT22;11380;50.822;15.790;2022-07-29T07:18:39;20.70;99.90
22426;DHT22;11380;50.822;15.790;2022-07-29T07:23:46;21.50;1.00
22426;DHT22;11380;50.822;15.790;2022-07-29T07:28:51;21.50;1.00
22426;DHT22;11380;50.822;15.790;2022-07-29T07:33:57;21.20;99.90
22426;DHT22;11380;50.822;15.790;2022-07-29T07:39:03;21.00;1.00
22426;DHT22;11380;50.822;15.790;2022-07-29T07:44:10;21.00;1.00
22426;DHT22;11380;50.822;15.790;2022-07-29T07:49:17;21.00;1.00
22426;DHT22;11380;50.822;15.790;2022-07-29T07:54:22;21.20;99.90
22426;DHT22;11380;50.822;15.790;2022-07-29T07:59:27;21.40;1.00
22426;DHT22;11380;50.822;15.790;2022-07-29T08:04:33;21.30;99.90
22426;DHT22;11380;50.822;15.790;2022-07-29T08:09:38;21.40;1.00
22426;DHT22;11380;50.822;15.790;2022-07-29T08:14:43;21.60;99.90
22426;DHT22;11380;50.822;15.790;2022-07-29T08:19:49;21.50;1.00
22426;DHT22;11380;50.822;15.790;2022-07-29T08:24:55;21.40;1.00
22426;DHT22;11380;50.822;15.790;2022-07-29T08:30:00;21.60;1.00
22426;DHT22;11380;50.822;15.790;2022-07-29T08:35:07;21.80;1.00
22426;DHT22;11380;50.822;15.790;2022-07-29T08:40:13;21.80;1.00
22426;DHT22;11380;50.822;15.790;2022-07-29T08:45:18;21.90;1.00
22426;DHT22;11380;50.822;15.790;2022-07-29T08:50:23;22.00;1.00
22426;DHT22;11380;50.822;15.790;2022-07-29T08:55:29;22.10;1.00
22426;DHT22;11380;50.822;15.790;2022-07-29T09:00:37;22.40;1.00
22426;DHT22;11380;50.822;15.790;2022-07-29T09:05:47;23.00;1.00
22426;DHT22;11380;50.822;15.790;2022-07-29T09:10:53;23.70;1.00
22426;DHT22;11380;50.822;15.790;2022-07-29T09:16:00;23.70;1.00
22426;DHT22;11380;50.822;15.790;2022-07-29T09:21:12;23.70;99.90
22426;DHT22;11380;50.822;15.790;2022-07-29T09:26:43;24.00;99.90
22426;DHT22;11380;50.822;15.790;2022-07-29T09:31:53;24.00;1.00
22426;DHT22;11380;50.822;15.790;2022-07-29T09:36:59;23.70;1.00
22426;DHT22;11380;50.822;15.790;2022-07-29T09:42:05;23.50;99.90
22426;DHT22;11380;50.822;15.790;2022-07-29T09:47:11;23.60;99.90
22426;DHT22;11380;50.822;15.790;2022-07-29T09:52:17;23.70;99.90
22426;DHT22;11380;50.822;15.790;2022-07-29T09:57:27;23.40;99.90
22426;DHT22;11380;50.822;15.790;2022-07-29T10:02:36;24.00;99.90
22426;DHT22;11380;50.822;15.790;2022-07-29T10:07:54;24.20;99.90
22426;DHT22;11380;50.822;15.790;2022-07-29T10:13:02;24.10;1.00
22426;DHT22;11380;50.822;15.790;2022-07-29T10:18:11;24.50;1.00
22426;DHT22;11380;50.822;15.790;2022-07-29T10:23:16;24.90;1.00
22426;DHT22;11380;50.822;15.790;2022-07-29T10:28:22;25.20;1.00
22426;DHT22;11380;50.822;15.790;2022-07-29T10:44:20;26.20;1.00
22426;DHT22;11380;50.822;15.790;2022-07-29T10:49:27;26.10;1.00
22426;DHT22;11380;50.822;15.790;2022-07-29T10:54:40;26.30;99.90
22426;DHT22;11380;50.822;15.790;2022-07-29T11:05:14;25.20;1.00
22426;DHT22;11380;50.822;15.790;2022-07-29T11:10:23;25.70;1.00
22426;DHT22;11380;50.822;15.790;2022-07-29T11:20:57;25.00;1.00
22426;DHT22;11380;50.822;15.790;2022-07-29T11:31:44;24.80;1.00
22426;DHT22;11380;50.822;15.790;2022-07-29T11:47:38;25.30;1.00
22426;DHT22;11380;50.822;15.790;2022-07-29T11:52:46;25.00;1.00
22426;DHT22;11380;50.822;15.790;2022-07-29T11:57:55;24.90;1.00
22426;DHT22;11380;50.822;15.790;2022-07-29T12:03:07;24.70;1.00
22426;DHT22;11380;50.822;15.790;2022-07-29T12:08:20;25.00;1.00
22426;DHT22;11380;50.822;15.790;2022-07-29T12:13:27;25.20;1.00
22426;DHT22;11380;50.822;15.790;2022-07-29T12:18:36;25.80;1.00
22426;DHT22;11380;50.822;15.790;2022-07-29T12:23:51;25.20;1.00
22426;DHT22;11380;50.822;15.790;2022-07-29T12:28:50;25.50;1.00
22426;DHT22;11380;50.822;15.790;2022-07-29T12:33:58;25.40;1.00
22426;DHT22;11380;50.822;15.790;2022-07-29T12:39:03;24.80;1.00
22426;DHT22;11380;50.822;15.790;2022-07-29T12:44:10;24.80;1.00
22426;DHT22;11380;50.822;15.790;2022-07-29T12:49:22;24.70;1.00
22426;DHT22;11380;50.822;15.790;2022-07-29T12:54:28;24.80;1.00
22426;DHT22;11380;50.822;15.790;2022-07-29T12:59:35;24.80;1.00
22426;DHT22;11380;50.822;15.790;2022-07-29T13:04:42;24.70;1.00
22426;DHT22;11380;50.822;15.790;2022-07-29T13:09:46;24.70;1.00
22426;DHT22;11380;50.822;15.790;2022-07-29T13:14:53;23.80;99.90
22426;DHT22;11380;50.822;15.790;2022-07-29T13:20:07;24.00;99.90
22426;DHT22;11380;50.822;15.790;2022-07-29T13:25:15;24.20;99.90
22426;DHT22;11380;50.822;15.790;2022-07-29T13:30:24;24.30;99.90
22426;DHT22;11380;50.822;15.790;2022-07-29T13:35:30;24.40;99.90
22426;DHT22;11380;50.822;15.790;2022-07-29T13:40:36;24.40;99.90
22426;DHT22;11380;50.822;15.790;2022-07-29T13:45:40;24.40;99.90
22426;DHT22;11380;50.822;15.790;2022-07-29T13:50:45;24.30;99.90
22426;DHT22;11380;50.822;15.790;2022-07-29T13:55:53;24.20;1.00
22426;DHT22;11380;50.822;15.790;2022-07-29T14:00:58;24.10;99.90
22426;DHT22;11380;50.822;15.790;2022-07-29T14:06:04;24.00;99.90
22426;DHT22;11380;50.822;15.790;2022-07-29T14:11:10;24.00;99.90
22426;DHT22;11380;50.822;15.790;2022-07-29T14:16:15;23.90;99.90
22426;DHT22;11380;50.822;15.790;2022-07-29T14:21:21;24.00;99.90
22426;DHT22;11380;50.822;15.790;2022-07-29T14:26:28;24.00;99.90
22426;DHT22;11380;50.822;15.790;2022-07-29T14:31:33;24.00;99.90
22426;DHT22;11380;50.822;15.790;2022-07-29T14:36:40;24.00;99.90
22426;DHT22;11380;50.822;15.790;2022-07-29T14:41:45;24.20;1.00
22426;DHT22;11380;50.822;15.790;2022-07-29T14:46:50;23.70;1.00
22426;DHT22;11380;50.822;15.790;2022-07-29T14:51:56;23.80;1.00
22426;DHT22;11380;50.822;15.790;2022-07-29T14:57:04;23.90;1.00
22426;DHT22;11380;50.822;15.790;2022-07-29T15:02:10;24.10;1.00
22426;DHT22;11380;50.822;15.790;2022-07-29T15:07:16;24.30;1.00
22426;DHT22;11380;50.822;15.790;2022-07-29T15:12:21;24.00;99.90
22426;DHT22;11380;50.822;15.790;2022-07-29T15:17:26;24.00;99.90
22426;DHT22;11380;50.822;15.790;2022-07-29T15:22:31;23.80;99.90
22426;DHT22;11380;50.822;15.790;2022-07-29T15:27:37;24.00;99.90
22426;DHT22;11380;50.822;15.790;2022-07-29T15:32:42;23.80;99.90
22426;DHT22;11380;50.822;15.790;2022-07-29T15:37:47;23.90;99.90
22426;DHT22;11380;50.822;15.790;2022-07-29T15:42:52;24.00;99.90
22426;DHT22;11380;50.822;15.790;2022-07-29T15:47:57;24.00;99.90
22426;DHT22;11380;50.822;15.790;2022-07-29T15:53:03;24.00;99.90
22426;DHT22;11380;50.822;15.790;2022-07-29T15:58:09;23.80;99.90
22426;DHT22;11380;50.822;15.790;2022-07-29T16:03:16;23.50;99.90
22426;DHT22;11380;50.822;15.790;2022-07-29T16:08:22;24.10;99.90
22426;DHT22;11380;50.822;15.790;2022-07-29T16:13:28;24.00;99.90
22426;DHT22;11380;50.822;15.790;2022-07-29T16:18:33;23.90;99.90
22426;DHT22;11380;50.822;15.790;2022-07-29T16:23:39;24.30;99.90
22426;DHT22;11380;50.822;15.790;2022-07-29T16:28:45;23.40;99.90
22426;DHT22;11380;50.822;15.790;2022-07-29T16:33:52;23.50;99.90
22426;DHT22;11380;50.822;15.790;2022-07-29T16:38:59;23.40;99.90
22426;DHT22;11380;50.822;15.790;2022-07-29T16:44:04;23.60;99.90
22426;DHT22;11380;50.822;15.790;2022-07-29T16:49:09;23.60;99.90
22426;DHT22;11380;50.822;15.790;2022-07-29T16:54:16;23.60;99.90
22426;DHT22;11380;50.822;15.790;2022-07-29T16:59:21;23.30;99.90
22426;DHT22;11380;50.822;15.790;2022-07-29T17:04:28;23.20;9.40
22426;DHT22;11380;50.822;15.790;2022-07-29T17:09:34;23.50;99.90
22426;DHT22;11380;50.822;15.790;2022-07-29T17:14:39;23.20;99.90
22426;DHT22;11380;50.822;15.790;2022-07-29T17:19:44;23.20;99.90
22426;DHT22;11380;50.822;15.790;2022-07-29T17:24:50;22.90;99.90
22426;DHT22;11380;50.822;15.790;2022-07-29T17:29:56;22.60;99.90
22426;DHT22;11380;50.822;15.790;2022-07-29T17:35:02;22.50;1.00
22426;DHT22;11380;50.822;15.790;2022-07-29T17:40:10;22.50;99.90
22426;DHT22;11380;50.822;15.790;2022-07-29T17:45:16;22.50;99.90
22426;DHT22;11380;50.822;15.790;2022-07-29T17:50:21;22.50;99.90
22426;DHT22;11380;50.822;15.790;2022-07-29T17:55:27;22.40;99.90
22426;DHT22;11380;50.822;15.790;2022-07-29T18:00:31;22.00;99.90
22426;DHT22;11380;50.822;15.790;2022-07-29T18:05:37;21.80;99.90
22426;DHT22;11380;50.822;15.790;2022-07-29T18:10:44;21.90;99.90
22426;DHT22;11380;50.822;15.790;2022-07-29T18:15:50;21.80;99.90
22426;DHT22;11380;50.822;15.790;2022-07-29T18:20:57;21.50;99.90
22426;DHT22;11380;50.822;15.790;2022-07-29T18:26:02;21.40;99.90
22426;DHT22;11380;50.822;15.790;2022-07-29T18:31:09;21.30;99.90
22426;DHT22;11380;50.822;15.790;2022-07-29T18:36:16;21.20;99.90
22426;DHT22;11380;50.822;15.790;2022-07-29T18:41:22;21.20;1.00
22426;DHT22;11380;50.822;15.790;2022-07-29T18:46:27;20.80;99.90
22426;DHT22;11380;50.822;15.790;2022-07-29T18:51:33;20.80;99.90
22426;DHT22;11380;50.822;15.790;2022-07-29T18:56:39;20.60;99.90
22426;DHT22;11380;50.822;15.790;2022-07-29T19:01:44;20.30;1.00
22426;DHT22;11380;50.822;15.790;2022-07-29T19:06:50;19.90;1.00
22426;DHT22;11380;50.822;15.790;2022-07-29T19:11:56;19.60;99.90
22426;DHT22;11380;50.822;15.790;2022-07-29T19:17:17;19.30;99.90
22426;DHT22;11380;50.822;15.790;2022-07-29T19:22:23;19.30;99.90
22426;DHT22;11380;50.822;15.790;2022-07-29T19:27:30;19.10;99.90
22426;DHT22;11380;50.822;15.790;2022-07-29T19:32:36;18.80;99.90
22426;DHT22;11380;50.822;15.790;2022-07-29T19:37:42;18.30;1.00
22426;DHT22;11380;50.822;15.790;2022-07-29T19:42:47;18.30;1.00
22426;DHT22;11380;50.822;15.790;2022-07-29T19:47:55;18.50;1.00
22426;DHT22;11380;50.822;15.790;2022-07-29T19:53:03;18.40;1.00
22426;DHT22;11380;50.822;15.790;2022-07-29T19:58:08;18.10;1.00
22426;DHT22;11380;50.822;15.790;2022-07-29T20:03:13;18.00;1.00
22426;DHT22;11380;50.822;15.790;2022-07-29T20:08:20;18.00;1.00
22426;DHT22;11380;50.822;15.790;2022-07-29T20:13:26;18.10;1.00
22426;DHT22;11380;50.822;15.790;2022-07-29T20:18:31;18.00;1.00
22426;DHT22;11380;50.822;15.790;2022-07-29T20:23:37;17.80;1.00
22426;DHT22;11380;50.822;15.790;2022-07-29T20:28:43;17.60;1.00
22426;DHT22;11380;50.822;15.790;2022-07-29T20:33:52;17.60;1.00
22426;DHT22;11380;50.822;15.790;2022-07-29T20:38:58;17.40;1.00
22426;DHT22;11380;50.822;15.790;2022-07-29T20:44:06;17.30;1.00
22426;DHT22;11380;50.822;15.790;2022-07-29T20:49:11;17.30;1.00
22426;DHT22;11380;50.822;15.790;2022-07-29T20:54:17;17.40;1.00
22426;DHT22;11380;50.822;15.790;2022-07-29T20:59:24;16.90;1.00
22426;DHT22;11380;50.822;15.790;2022-07-29T21:04:29;16.90;1.00
22426;DHT22;11380;50.822;15.790;2022-07-29T21:09:36;17.00;1.00
22426;DHT22;11380;50.822;15.790;2022-07-29T21:14:42;16.70;1.00
22426;DHT22;11380;50.822;15.790;2022-07-29T21:19:50;17.00;1.00
22426;DHT22;11380;50.822;15.790;2022-07-29T21:24:57;16.90;1.00
22426;DHT22;11380;50.822;15.790;2022-07-29T21:30:03;16.50;1.00
22426;DHT22;11380;50.822;15.790;2022-07-29T21:35:10;16.40;1.00
22426;DHT22;11380;50.822;15.790;2022-07-29T21:40:17;16.50;1.00
22426;DHT22;11380;50.822;15.790;2022-07-29T21:45:23;16.40;1.00
22426;DHT22;11380;50.822;15.790;2022-07-29T21:50:29;16.50;1.00
22426;DHT22;11380;50.822;15.790;2022-07-29T21:55:35;16.50;1.00
22426;DHT22;11380;50.822;15.790;2022-07-29T22:00:42;16.40;1.00
22426;DHT22;11380;50.822;15.790;2022-07-29T22:05:47;16.40;1.00
22426;DHT22;11380;50.822;15.790;2022-07-29T22:10:52;16.20;1.00
22426;DHT22;11380;50.822;15.790;2022-07-29T22:15:58;16.30;1.00
22426;DHT22;11380;50.822;15.790;2022-07-29T22:21:03;16.20;1.00
22426;DHT22;11380;50.822;15.790;2022-07-29T22:26:08;16.10;1.00
22426;DHT22;11380;50.822;15.790;2022-07-29T22:31:13;16.10;1.00
22426;DHT22;11380;50.822;15.790;2022-07-29T22:36:19;16.10;1.00
22426;DHT22;11380;50.822;15.790;2022-07-29T22:41:24;16.00;1.00
22426;DHT22;11380;50.822;15.790;2022-07-29T22:46:31;15.90;1.00
22426;DHT22;11380;50.822;15.790;2022-07-29T22:51:37;15.90;1.00
22426;DHT22;11380;50.822;15.790;2022-07-29T22:56:42;15.80;1.00
22426;DHT22;11380;50.822;15.790;2022-07-29T23:01:47;15.30;1.00
22426;DHT22;11380;50.822;15.790;2022-07-29T23:06:52;15.60;1.00
22426;DHT22;11380;50.822;15.790;2022-07-29T23:11:58;15.50;1.00
22426;DHT22;11380;50.822;15.790;2022-07-29T23:17:05;15.40;1.00
22426;DHT22;11380;50.822;15.790;2022-07-29T23:22:10;15.60;1.00
22426;DHT22;11380;50.822;15.790;2022-07-29T23:27:15;15.70;1.00
22426;DHT22;11380;50.822;15.790;2022-07-29T23:32:20;15.40;1.00
22426;DHT22;11380;50.822;15.790;2022-07-29T23:37:26;15.50;1.00
22426;DHT22;11380;50.822;15.790;2022-07-29T23:42:31;15.70;1.00
22426;DHT22;11380;50.822;15.790;2022-07-29T23:47:37;15.70;1.00
22426;DHT22;11380;50.822;15.790;2022-07-29T23:52:43;15.50;1.00
22426;DHT22;11380;50.822;15.790;2022-07-29T23:57:49;15.50;1.00
